Multan Weather



Multan's Current Weather

Temprature 14o smoke

smoke

Rain: 0 %

Min Temprature14o
Max Temprature14o
Humidity76
Wind Speed2.1 m/h
Sun Rise07:00:42
Sun Set17:14:39
Current Time: 12-Dec-2019 01:26:14
Lat/Lon: 30.2, 71.47




Multan's Geo Location



Multan's Weather Forecast

Time Overall Temp Min Temp Max Temp Humidity Wind Speed Rain
12-Dec-2019 (Thu)
02:00:00 overcast clouds 13.600 13.600 16.340 27 2.2 m/h 0 %
05:00:00 light rain 10.410 10.410 12.460 70 4.86 m/h 75 %
08:00:00 light rain 11.650 11.650 13.020 80 0.35 m/h 256 %
11:00:00 light rain 12.920 12.920 13.600 79 2.8 m/h 144 %
14:00:00 light rain 13.090 13.090 13.090 75 4.23 m/h 106 %
17:00:00 light rain 12.660 12.660 12.660 73 4.84 m/h 31 %
20:00:00 overcast clouds 12.550 12.550 12.550 78 2.93 m/h 0 %
23:00:00 broken clouds 11.080 11.080 11.080 89 1.55 m/h 0 %
13-Dec-2019 (Fri)
02:00:00 clear sky 10.390 10.390 10.390 90 0.54 m/h 0 %
05:00:00 clear sky 10.000 10.000 10.000 89 0.73 m/h 0 %
08:00:00 scattered clouds 11.250 11.250 11.250 83 0.46 m/h 0 %
11:00:00 few clouds 16.450 16.450 16.450 57 0.93 m/h 0 %
14:00:00 clear sky 19.060 19.060 19.060 44 1.29 m/h 0 %
17:00:00 clear sky 17.100 17.100 17.100 50 2.53 m/h 0 %
20:00:00 clear sky 14.740 14.740 14.740 60 2.66 m/h 0 %
23:00:00 clear sky 13.850 13.850 13.850 64 2.9 m/h 0 %
14-Dec-2019 (Sat)
02:00:00 clear sky 13.050 13.050 13.050 68 3.32 m/h 0 %
05:00:00 clear sky 12.140 12.140 12.140 72 2.52 m/h 0 %
08:00:00 clear sky 12.830 12.830 12.830 70 2.49 m/h 0 %
11:00:00 clear sky 18.930 18.930 18.930 45 3.07 m/h 0 %
14:00:00 clear sky 20.930 20.930 20.930 36 2.71 m/h 0 %
17:00:00 scattered clouds 18.610 18.610 18.610 41 2.41 m/h 0 %
20:00:00 overcast clouds 16.410 16.410 16.410 49 2.37 m/h 0 %
23:00:00 overcast clouds 15.800 15.800 15.800 52 1.91 m/h 0 %
15-Dec-2019 (Sun)
02:00:00 broken clouds 14.360 14.360 14.360 57 1.94 m/h 0 %
05:00:00 broken clouds 13.800 13.800 13.800 59 2 m/h 0 %
08:00:00 broken clouds 14.190 14.190 14.190 58 0.79 m/h 0 %
11:00:00 scattered clouds 19.130 19.130 19.130 40 1.92 m/h 0 %
14:00:00 clear sky 20.850 20.850 20.850 34 2.69 m/h 0 %
17:00:00 clear sky 18.800 18.800 18.800 37 2.36 m/h 0 %
20:00:00 clear sky 16.400 16.400 16.400 43 2.2 m/h 0 %
23:00:00 clear sky 14.710 14.710 14.710 48 1.79 m/h 0 %
16-Dec-2019 (Mon)
02:00:00 clear sky 13.400 13.400 13.400 52 0.47 m/h 0 %
05:00:00 clear sky 12.930 12.930 12.930 54 0.99 m/h 0 %
08:00:00 clear sky 13.660 13.660 13.660 52 0.81 m/h 0 %
11:00:00 clear sky 19.560 19.560 19.560 34 1.58 m/h 0 %
14:00:00 clear sky 21.570 21.570 21.570 22 3.6 m/h 0 %
17:00:00 clear sky 18.700 18.700 18.700 27 2.86 m/h 0 %
20:00:00 clear sky 15.630 15.630 15.630 33 1.41 m/h 0 %
23:00:00 clear sky 14.380 14.380 14.380 36 1.62 m/h 0 %

Famous Cities (61)